Terminal Aerodrome Forecast
Issued by NWS

Home | Current Version | Previous Version | Text Only | Print | Product List | Glossary On
Versions: 1 2 3 4 5 6 7 8 9 10 11 12 13 14 15 16 17 18 19 20 21 22 23 24 25 26 27 28 29 30 31
069
FTUS43 KDVN 282102 AAB
TAFBRL
TAF AMD
KBRL 282102Z 2821/2918 06005KT P6SM OVC015
     FM290000 05007KT P6SM OVC025
     FM291200 06010KT 6SM BR OVC020
     FM291500 07015KT 6SM -RA BR OVC020=

USA.gov is the U.S. government's official web portal to all federal, state and local government web resources and services.